Time;durP1;ratioP1;P1;durP2;ratioP2;P2;SDS_P1;SDS_P2;PMS_P1;PMS_P2;Temp;Humidity;BMP_temperature;BMP_pressure;BME280_temperature;BME280_humidity;BME280_pressure;Samples;Min_cycle;Max_cycle;Signal;HPM_P1;HPM_P2
2022/11/04 00:02:04;;;;;;;4.40;3.17;;;;;;;1.44;85.31;95637.16;1732800;81;21532;-74
2022/11/04 00:04:31;;;;;;;7.57;3.20;;;;;;;1.44;85.24;95646.69;1730636;81;21034;-74
2022/11/04 00:06:58;;;;;;;4.73;3.27;;;;;;;1.38;85.29;95650.03;1740607;81;21003;-75
2022/11/04 00:09:28;;;;;;;5.83;3.20;;;;;;;1.39;85.48;95647.03;1741854;81;21563;-74
2022/11/04 00:14:42;;;;;;;4.40;3.00;;;;;;;1.54;86.09;95642.09;1744822;81;21021;-74
2022/11/04 00:17:18;;;;;;;7.07;3.20;;;;;;;1.55;85.79;95645.13;1746829;80;21081;-74
2022/11/04 00:33:54;;;;;;;4.80;2.70;;;;;;;1.53;85.42;95630.35;1793189;80;21167;-75
2022/11/04 00:36:24;;;;;;;5.87;2.97;;;;;;;1.54;85.57;95631.69;1783302;79;21573;-74
2022/11/04 00:38:51;;;;;;;4.90;3.17;;;;;;;1.54;86.05;95629.09;1792959;80;21068;-74
2022/11/04 00:41:27;;;;;;;4.50;3.27;;;;;;;1.50;85.37;95633.34;1792007;80;21025;-74
2022/11/04 00:43:59;;;;;;;8.63;3.60;;;;;;;1.52;85.81;95628.19;1792030;80;21049;-74
2022/11/04 00:46:29;;;;;;;4.63;3.17;;;;;;;1.56;85.94;95627.80;1778084;80;21027;-74
2022/11/04 00:48:55;;;;;;;6.30;2.93;;;;;;;1.44;85.31;95619.39;1788043;79;21025;-74
2022/11/04 00:51:23;;;;;;;4.77;3.23;;;;;;;1.45;85.79;95628.92;1787575;80;21077;-74
2022/11/04 00:53:50;;;;;;;6.03;3.40;;;;;;;1.44;85.85;95626.76;1792519;80;21053;-74
2022/11/04 00:56:17;;;;;;;4.60;3.30;;;;;;;1.46;85.78;95625.46;1784908;80;21072;-75
2022/11/04 00:58:44;;;;;;;4.90;3.23;;;;;;;1.47;85.89;95628.10;1780241;80;21101;-74
2022/11/04 01:01:17;;;;;;;8.20;4.30;;;;;;;1.48;85.85;95622.47;1788156;80;21006;-74
2022/11/04 01:03:47;;;;;;;15.05;5.05;;;;;;;1.47;86.00;95620.73;1780483;80;21160;-75
2022/11/04 01:06:14;;;;;;;6.37;4.37;;;;;;;1.44;86.04;95624.16;1791151;80;21127;-74
2022/11/04 01:08:41;;;;;;;9.60;4.57;;;;;;;1.39;85.94;95621.91;1789733;80;21029;-74
2022/11/04 01:11:09;;;;;;;5.77;2.90;;;;;;;1.32;85.98;95617.87;1784914;79;21556;-75
2022/11/04 01:13:36;;;;;;;7.23;2.73;;;;;;;1.34;86.13;95616.19;1780770;80;21034;-74
2022/11/04 01:16:06;;;;;;;4.60;3.37;;;;;;;1.33;86.00;95614.41;1778668;80;21078;-74
2022/11/04 01:18:33;;;;;;;4.93;3.37;;;;;;;1.35;86.11;95612.72;1779112;80;20990;-74
2022/11/04 01:21:04;;;;;;;7.37;3.87;;;;;;;1.30;85.95;95604.41;1778192;80;21796;-74
2022/11/04 01:23:33;;;;;;;5.03;3.17;;;;;;;1.35;86.73;95606.22;1784483;79;21061;-74
2022/11/04 01:25:59;;;;;;;6.17;3.10;;;;;;;1.28;85.96;95598.30;1783055;79;21014;-74
2022/11/04 01:28:26;;;;;;;4.23;2.50;;;;;;;1.24;85.87;95599.12;1789379;80;21548;-74
2022/11/04 01:30:53;;;;;;;4.83;2.93;;;;;;;1.22;85.95;95593.02;1789000;80;21065;-74
2022/11/04 01:33:19;;;;;;;6.30;2.73;;;;;;;1.24;86.35;95583.95;1789515;79;21465;-75
2022/11/04 01:35:46;;;;;;;4.73;2.90;;;;;;;1.24;86.23;95583.95;1781929;80;20987;-74
2022/11/04 01:38:13;;;;;;;6.10;3.93;;;;;;;1.27;86.74;95581.41;1781230;80;21019;-74
2022/11/04 01:40:40;;;;;;;4.67;3.40;;;;;;;1.27;86.70;95574.91;1786242;80;21500;-74
2022/11/04 01:43:20;;;;;;;5.33;3.70;;;;;;;1.26;86.37;95577.03;1792079;80;21037;-75
2022/11/04 01:45:57;;;;;;;6.97;4.33;;;;;;;1.32;86.88;95570.66;1786411;80;21002;-75
2022/11/04 01:48:33;;;;;;;9.23;5.00;;;;;;;1.30;86.56;95570.62;1792934;80;21033;-74
2022/11/04 01:51:00;;;;;;;9.33;5.60;;;;;;;1.26;86.45;95567.94;1786985;80;21042;-74
2022/11/04 01:53:36;;;;;;;11.20;5.63;;;;;;;1.24;86.83;95564.03;1783420;80;21441;-74
2022/11/04 01:56:10;;;;;;;9.50;5.40;;;;;;;1.21;86.63;95561.78;1767122;80;21050;-74
2022/11/04 01:58:36;;;;;;;9.35;5.62;;;;;;;1.16;86.47;95560.44;1784765;80;21045;-74
2022/11/04 02:01:02;;;;;;;7.90;5.40;;;;;;;1.14;86.71;95557.36;1788496;80;21029;-74
2022/11/04 02:03:47;;;;;;;8.13;5.33;;;;;;;1.11;87.22;95552.98;1793102;80;21068;-74
2022/11/04 02:06:16;;;;;;;9.07;5.80;;;;;;;1.07;86.83;95548.14;1788152;80;21074;-74
2022/11/04 02:08:43;;;;;;;7.83;4.63;;;;;;;1.07;86.75;95544.68;1788901;79;21515;-74
2022/11/04 02:12:48;;;;;;;8.27;5.43;;;;;;;1.04;86.87;95538.14;1789294;79;20994;-74
2022/11/04 02:13:39;;;;;;;8.57;5.43;;;;;;;1.06;87.42;95532.55;1784105;79;21034;-74
2022/11/04 02:16:20;;;;;;;10.00;5.73;;;;;;;1.04;87.23;95531.21;1786338;80;21049;-74
2022/11/04 02:19:15;;;;;;;7.60;5.20;;;;;;;1.07;86.92;95531.69;1769475;80;21155;-74
2022/11/04 02:22:11;;;;;;;6.93;3.90;;;;;;;1.09;87.11;95527.39;1782360;80;21034;-74
2022/11/04 02:25:24;;;;;;;7.80;4.80;;;;;;;1.08;87.10;95522.62;1773019;80;21102;-74
2022/11/04 02:28:33;;;;;;;7.33;4.23;;;;;;;1.04;87.02;95515.62;1790310;80;20974;-74
2022/11/04 02:31:29;;;;;;;9.03;4.67;;;;;;;1.05;87.15;95514.77;1777771;80;21021;-74
2022/11/04 02:34:13;;;;;;;6.20;4.13;;;;;;;1.16;87.62;95522.75;1786415;80;21018;-74
2022/11/04 02:36:53;;;;;;;8.23;3.30;;;;;;;1.23;87.59;95514.61;1780459;80;21027;-74
2022/11/04 02:39:53;;;;;;;6.90;3.30;;;;;;;1.26;86.99;95502.95;1787051;80;21022;-74
2022/11/04 02:42:40;;;;;;;6.27;3.80;;;;;;;1.21;86.79;95503.31;1759425;80;21148;-74
2022/11/04 02:45:23;;;;;;;4.87;3.10;;;;;;;1.23;87.12;95501.62;1793146;80;21022;-75
2022/11/04 02:47:55;;;;;;;4.45;2.92;;;;;;;1.27;87.25;95506.02;1783484;80;21053;-74
2022/11/04 02:51:01;;;;;;;4.40;2.90;;;;;;;1.34;86.75;95500.08;1784845;80;21050;-74
2022/11/04 02:53:32;;;;;;;7.10;3.33;;;;;;;1.33;86.78;95493.11;1783434;79;21085;-74
2022/11/04 02:56:02;;;;;;;6.37;3.03;;;;;;;1.36;87.07;95490.58;1775360;80;21505;-74
2022/11/04 02:58:37;;;;;;;3.07;2.40;;;;;;;1.42;87.19;95482.86;1799071;79;21056;-75
2022/11/04 03:01:07;;;;;;;4.67;2.80;;;;;;;1.47;87.09;95482.50;1789952;79;21038;-75
2022/11/04 03:03:41;;;;;;;3.47;2.57;;;;;;;1.46;86.50;95474.66;1788210;79;21072;-75
2022/11/04 03:06:11;;;;;;;3.93;2.17;;;;;;;1.40;86.31;95484.98;1787823;79;21492;-74
2022/11/04 03:08:46;;;;;;;4.13;2.50;;;;;;;1.34;85.93;95481.02;1794778;79;21022;-74
2022/11/04 03:11:16;;;;;;;4.10;2.70;;;;;;;1.22;85.96;95485.16;1786758;79;21026;-74
2022/11/04 03:13:49;;;;;;;4.57;2.30;;;;;;;1.18;86.44;95485.95;1784371;79;21492;-75
2022/11/04 03:16:21;;;;;;;5.10;2.70;;;;;;;1.17;86.20;95479.02;1798125;79;21006;-74
2022/11/04 03:19:05;;;;;;;3.63;2.07;;;;;;;1.14;86.52;95473.77;1782256;79;22394;-74
2022/11/04 03:21:36;;;;;;;4.37;2.57;;;;;;;1.11;86.53;95471.53;1784823;80;21007;-75
2022/11/04 03:24:04;;;;;;;3.70;2.60;;;;;;;1.05;86.48;95471.02;1784199;80;21100;-74
2022/11/04 03:26:48;;;;;;;4.43;2.10;;;;;;;1.06;86.73;95476.69;1791185;79;21025;-74
2022/11/04 03:29:37;;;;;;;5.90;2.33;;;;;;;1.14;87.07;95475.08;1790075;79;21785;-74
2022/11/04 03:32:18;;;;;;;6.67;3.03;;;;;;;1.17;86.97;95479.02;1783753;80;21109;-74
2022/11/04 03:34:44;;;;;;;5.17;2.90;;;;;;;1.16;86.79;95478.58;1789661;79;20997;-74
2022/11/04 03:37:11;;;;;;;4.07;3.00;;;;;;;1.18;86.81;95464.29;1787598;80;21013;-74
2022/11/04 03:39:38;;;;;;;3.80;2.87;;;;;;;1.19;86.64;95462.16;1800779;79;21033;-74
2022/11/04 03:42:19;;;;;;;5.33;2.87;;;;;;;1.20;86.75;95464.76;1788268;79;21560;-74
2022/11/04 03:44:50;;;;;;;5.20;2.83;;;;;;;1.26;86.86;95464.88;1759572;80;21061;-74
2022/11/04 03:47:20;;;;;;;4.07;2.30;;;;;;;1.19;85.58;95467.36;1737250;81;21528;-75
2022/11/04 03:49:48;;;;;;;5.00;2.37;;;;;;;1.16;85.94;95458.19;1753916;82;21511;-74
2022/11/04 03:52:17;;;;;;;3.93;2.10;;;;;;;1.12;85.86;95457.28;1743078;82;21464;-74
2022/11/04 03:54:44;;;;;;;4.57;2.27;;;;;;;1.14;86.13;95449.52;1752011;82;21053;-74
2022/11/04 03:57:31;;;;;;;4.97;2.40;;;;;;;1.18;86.10;95450.86;1777364;79;21029;-75
2022/11/04 04:00:14;;;;;;;4.57;3.07;;;;;;;1.14;85.75;95453.42;1784113;79;21553;-74
2022/11/04 04:03:07;;;;;;;7.70;3.40;;;;;;;1.15;86.52;95455.16;1792128;79;21072;-74
2022/11/04 04:06:00;;;;;;;5.47;3.33;;;;;;;1.18;86.60;95453.89;1786970;80;21017;-74
2022/11/04 04:08:41;;;;;;;4.50;2.62;;;;;;;1.23;86.82;95447.91;1785097;79;21022;-74
2022/11/04 04:11:16;;;;;;;7.43;2.50;;;;;;;1.18;86.00;95448.70;1790015;79;21034;-74
2022/11/04 04:14:06;;;;;;;3.97;2.80;;;;;;;1.19;86.40;95449.16;1780188;80;21027;-73
2022/11/04 04:16:45;;;;;;;4.80;2.80;;;;;;;1.12;86.22;95450.78;1783279;79;21022;-74
2022/11/04 04:19:17;;;;;;;5.87;2.60;;;;;;;1.13;86.37;95452.95;1793147;80;21037;-74
2022/11/04 04:21:49;;;;;;;5.63;2.03;;;;;;;1.10;86.05;95451.61;1788248;80;21025;-74
2022/11/04 04:29:52;;;;;;;6.10;3.40;;;;;;;1.14;87.41;95443.02;1783540;80;21497;-74
2022/11/04 04:32:23;;;;;;;3.73;2.60;;;;;;;1.16;87.00;95438.70;1785404;80;21057;-74
2022/11/04 04:34:50;;;;;;;3.77;2.50;;;;;;;1.19;86.79;95441.37;1791222;80;21610;-74
2022/11/04 04:37:21;;;;;;;4.83;2.50;;;;;;;1.24;87.19;95439.71;1782479;80;21007;-74
2022/11/04 04:45:35;;;;;;;5.07;2.60;;;;;;;1.46;86.89;95439.16;1793084;79;21516;-74
2022/11/04 04:48:03;;;;;;;15.40;7.97;;;;;;;1.53;87.14;95433.60;1784001;80;21505;-74
2022/11/04 04:50:35;;;;;;;13.70;7.13;;;;;;;1.59;87.60;95435.41;1787957;80;21023;-74
2022/11/04 04:53:03;;;;;;;16.93;9.10;;;;;;;1.63;87.52;95435.47;1781336;80;21183;-73
2022/11/04 04:55:30;;;;;;;13.90;7.40;;;;;;;1.76;87.58;95427.83;1785612;80;21041;-74
2022/11/04 04:57:58;;;;;;;12.97;6.10;;;;;;;1.78;86.62;95424.39;1778648;80;21022;-74
2022/11/04 05:00:25;;;;;;;17.53;9.97;;;;;;;1.86;87.24;95425.34;1779298;80;21501;-75
2022/11/04 05:02:52;;;;;;;25.40;13.27;;;;;;;1.87;86.26;95421.05;1782854;80;21532;-73
2022/11/04 05:05:19;;;;;;;20.07;10.83;;;;;;;1.91;86.53;95413.70;1788546;80;21025;-74
2022/11/04 05:07:46;;;;;;;26.43;13.70;;;;;;;1.85;85.78;95421.02;1793086;80;21535;-74
2022/11/04 05:10:15;;;;;;;23.77;13.97;;;;;;;1.84;86.21;95417.08;1792427;80;21021;-74
2022/11/04 05:15:28;;;;;;;21.53;14.00;;;;;;;1.82;86.16;95426.63;1793439;79;20998;-74
2022/11/04 05:18:01;;;;;;;23.03;14.40;;;;;;;1.86;86.79;95433.16;1801677;79;21559;-74
2022/11/04 05:20:29;;;;;;;23.30;14.73;;;;;;;1.91;86.64;95433.22;1787705;79;21487;-74
2022/11/04 05:22:55;;;;;;;24.03;14.93;;;;;;;1.94;86.75;95432.84;1795196;79;21129;-74
2022/11/04 05:25:22;;;;;;;39.47;21.03;;;;;;;2.00;86.74;95433.77;1791959;79;21018;-74
2022/11/04 05:27:48;;;;;;;31.30;18.17;;;;;;;2.06;87.03;95429.48;1790479;79;21105;-75
2022/11/04 05:30:15;;;;;;;41.47;21.97;;;;;;;2.08;86.54;95426.48;1792509;79;20982;-74
2022/11/04 05:32:41;;;;;;;35.20;19.47;;;;;;;2.12;86.63;95416.56;1787687;79;21045;-74
2022/11/04 05:35:08;;;;;;;25.37;15.70;;;;;;;2.21;86.67;95422.72;1733909;81;21021;-74
2022/11/04 05:37:35;;;;;;;30.73;17.43;;;;;;;2.22;86.26;95425.35;1733786;81;21013;-74
2022/11/04 05:40:01;;;;;;;25.60;15.07;;;;;;;2.26;86.56;95423.64;1732556;81;21109;-74
2022/11/04 05:42:30;;;;;;;39.43;22.30;;;;;;;2.31;87.09;95431.94;1703680;83;21013;-74
2022/11/04 05:44:57;;;;;;;35.50;20.20;;;;;;;2.37;86.90;95434.63;1745005;81;21069;-74
2022/11/04 05:47:24;;;;;;;38.37;20.83;;;;;;;2.41;86.61;95433.34;1754605;81;21044;-75
2022/11/04 05:49:51;;;;;;;33.47;19.80;;;;;;;2.44;86.46;95429.46;1762115;80;21014;-76
2022/11/04 05:52:17;;;;;;;91.70;43.53;;;;;;;2.53;86.92;95423.92;1756444;81;21042;-80
2022/11/04 05:54:44;;;;;;;45.10;24.33;;;;;;;2.65;86.80;95422.30;1755057;81;21077;-71
2022/11/04 05:57:11;;;;;;;64.63;37.37;;;;;;;2.73;86.66;95429.31;1748596;81;21041;-74
2022/11/04 05:59:38;;;;;;;53.27;31.10;;;;;;;2.76;86.17;95425.86;1747912;80;21070;-70
2022/11/04 06:02:04;;;;;;;49.63;25.73;;;;;;;2.85;86.80;95425.05;1775754;80;21449;-71
2022/11/04 06:04:31;;;;;;;70.90;37.53;;;;;;;2.97;87.00;95422.15;1784766;80;21152;-71
2022/11/04 06:06:58;;;;;;;103.80;58.87;;;;;;;3.02;86.02;95425.66;1735270;81;21030;-72
2022/11/04 06:09:37;;;;;;;74.20;44.43;;;;;;;2.94;85.71;95424.70;1708085;83;21046;-72
2022/11/04 06:11:54;;;;;;;70.17;40.03;;;;;;;2.97;86.10;95430.38;1731724;81;21122;-74
2022/11/04 06:14:20;;;;;;;49.07;29.07;;;;;;;3.04;86.66;95425.22;1740124;81;21027;-72
2022/11/04 06:16:47;;;;;;;41.47;24.20;;;;;;;3.13;86.82;95424.43;1732117;81;21086;-75
2022/11/04 06:19:13;;;;;;;27.53;16.60;;;;;;;3.23;86.71;95425.38;1738190;82;21025;-76
2022/11/04 06:21:40;;;;;;;18.80;10.90;;;;;;;3.29;86.49;95427.14;1753633;82;21037;-80
2022/11/04 06:24:07;;;;;;;48.27;29.00;;;;;;;3.32;86.52;95428.02;1742668;81;21021;-82
2022/11/04 06:26:34;;;;;;;60.10;32.47;;;;;;;3.33;86.47;95421.96;1745662;81;21461;-76
2022/11/04 06:29:01;;;;;;;54.40;28.27;;;;;;;3.35;86.45;95428.06;1751448;81;21018;-75
2022/11/04 06:31:28;;;;;;;99.27;50.40;;;;;;;3.36;86.79;95428.94;1753656;82;20999;-78
2022/11/04 06:33:54;;;;;;;146.37;65.17;;;;;;;3.39;86.98;95427.64;1752539;81;21148;-72
2022/11/04 06:36:21;;;;;;;106.10;56.40;;;;;;;3.44;87.57;95427.23;1748037;82;21536;-76
2022/11/04 06:38:48;;;;;;;104.63;54.07;;;;;;;3.50;87.28;95429.00;1756031;82;21030;-76
2022/11/04 06:41:16;;;;;;;76.90;44.17;;;;;;;3.58;88.16;95426.00;1753501;82;21582;-79
2022/11/04 06:43:43;;;;;;;65.60;36.97;;;;;;;3.65;88.19;95431.30;1751952;81;21029;-75
2022/11/04 06:46:38;;;;;;;43.57;26.50;;;;;;;3.71;88.19;95427.83;1748739;82;21091;-78
2022/11/04 06:49:08;;;;;;;41.07;23.83;;;;;;;3.77;88.36;95425.24;1713394;83;21056;-79
2022/11/04 06:51:35;;;;;;;38.23;22.97;;;;;;;3.83;88.47;95425.29;1742902;81;21540;-75
2022/11/04 06:54:02;;;;;;;33.60;18.97;;;;;;;3.89;88.42;95420.08;1721555;83;21497;-77
2022/11/04 06:56:29;;;;;;;34.37;20.73;;;;;;;4.00;88.85;95416.20;1702098;83;21687;-77
2022/11/04 06:58:56;;;;;;;27.33;16.80;;;;;;;4.14;89.53;95411.05;1691423;83;21544;-76
2022/11/04 07:01:26;;;;;;;27.80;17.00;;;;;;;4.26;89.53;95405.86;1706240;83;21022;-79
2022/11/04 07:03:56;;;;;;;19.97;13.67;;;;;;;4.46;89.18;95412.45;1729349;82;21052;-73
2022/11/04 07:06:23;;;;;;;27.27;17.90;;;;;;;4.65;89.18;95409.41;1734401;82;21511;-80
2022/11/04 07:08:52;;;;;;;23.07;13.50;;;;;;;4.81;88.69;95398.52;1715165;81;21101;-72
2022/11/04 07:11:21;;;;;;;16.30;10.63;;;;;;;5.03;88.59;95392.87;1709886;83;21069;-76
2022/11/04 07:13:48;;;;;;;16.17;10.13;;;;;;;5.22;88.21;95392.43;1709712;83;21084;-78
2022/11/04 07:16:16;;;;;;;16.53;9.73;;;;;;;5.35;87.58;95390.67;1742313;81;21093;-78
2022/11/04 07:18:44;;;;;;;16.73;8.70;;;;;;;5.50;87.19;95391.94;1738711;81;21032;-77
2022/11/04 07:21:11;;;;;;;20.87;9.90;;;;;;;5.65;87.40;95392.34;1740270;81;21013;-76
2022/11/04 07:23:38;;;;;;;36.27;24.77;;;;;;;5.82;86.71;95392.27;1735737;81;21503;-76
2022/11/04 07:26:07;;;;;;;25.60;14.10;;;;;;;5.93;85.37;95385.27;1707191;83;21561;-75
2022/11/04 07:28:34;;;;;;;22.53;13.97;;;;;;;6.07;86.13;95390.45;1729444;82;21073;-73
2022/11/04 07:31:03;;;;;;;17.87;10.80;;;;;;;6.22;85.58;95382.97;1734440;82;21022;-74
2022/11/04 07:33:32;;;;;;;13.60;8.93;;;;;;;6.28;83.74;95376.41;1734351;82;21029;-73
2022/11/04 07:36:05;;;;;;;12.50;8.53;;;;;;;6.37;83.47;95369.78;1735920;82;21527;-71
2022/11/04 07:38:32;;;;;;;13.35;7.97;;;;;;;6.42;82.63;95375.00;1730838;82;21140;-74
2022/11/04 07:40:59;;;;;;;13.33;8.40;;;;;;;6.53;84.05;95352.64;1741620;81;21014;-79
2022/11/04 07:43:26;;;;;;;12.60;8.23;;;;;;;6.69;84.56;95351.67;1729383;81;21010;-74
2022/11/04 07:46:02;;;;;;;11.93;8.67;;;;;;;6.79;83.03;95345.47;1728991;82;21568;-73
2022/11/04 07:48:29;;;;;;;14.03;9.00;;;;;;;6.78;81.98;95347.67;1738350;81;21085;-81
2022/11/04 07:50:58;;;;;;;15.60;9.13;;;;;;;6.70;81.25;95348.15;1743274;81;21026;-75
2022/11/04 07:53:27;;;;;;;16.67;9.67;;;;;;;6.66;81.46;95345.14;1729150;82;21521;-78
2022/11/04 07:55:53;;;;;;;17.70;11.17;;;;;;;6.70;82.11;95349.46;1737533;81;21034;-71
2022/11/04 07:58:21;;;;;;;30.80;17.57;;;;;;;6.72;82.26;95350.33;1739175;82;21082;-72
2022/11/04 08:00:48;;;;;;;279.00;120.30;;;;;;;6.63;81.58;95354.35;1735020;81;21042;-73
2022/11/04 08:03:15;;;;;;;189.22;79.15;;;;;;;6.63;81.71;95343.42;1727843;82;21089;-71
2022/11/04 08:05:42;;;;;;;76.50;50.03;;;;;;;6.62;81.69;95349.52;1734945;82;21002;-74
2022/11/04 08:08:09;;;;;;;85.03;59.67;;;;;;;6.61;81.73;95349.55;1730603;82;21129;-74
2022/11/04 08:10:36;;;;;;;27.60;21.90;;;;;;;6.60;81.95;95346.48;1741251;82;20983;-74
2022/11/04 08:13:02;;;;;;;18.17;12.63;;;;;;;6.62;82.32;95340.80;1718983;83;20996;-76
2022/11/04 08:15:29;;;;;;;21.57;15.50;;;;;;;6.62;82.78;95336.86;1728098;82;21026;-73
2022/11/04 08:17:55;;;;;;;17.30;12.30;;;;;;;6.65;82.53;95331.59;1708894;82;21018;-70
2022/11/04 08:20:22;;;;;;;14.03;9.60;;;;;;;6.72;82.68;95339.84;1735485;82;20986;-76
2022/11/04 08:22:48;;;;;;;19.57;11.83;;;;;;;6.75;82.74;95338.50;1728144;81;21018;-77
2022/11/04 08:25:15;;;;;;;14.80;9.58;;;;;;;6.81;82.32;95337.16;1730992;81;21512;-72
2022/11/04 08:27:42;;;;;;;18.00;12.40;;;;;;;6.87;82.57;95340.16;1745755;82;20986;-71
2022/11/04 08:30:10;;;;;;;14.35;8.90;;;;;;;6.92;82.02;95337.06;1731999;82;21010;-73
2022/11/04 08:32:37;;;;;;;13.90;8.98;;;;;;;6.91;81.48;95335.33;1734930;81;21042;-70
2022/11/04 08:35:05;;;;;;;12.88;8.05;;;;;;;7.05;82.06;95343.92;1731023;82;21081;-71
2022/11/04 08:37:31;;;;;;;11.20;7.62;;;;;;;7.21;82.36;95337.25;1728416;82;21109;-72
2022/11/04 08:39:58;;;;;;;12.25;7.62;;;;;;;7.45;82.42;95338.74;1742235;81;21022;-71
2022/11/04 08:42:25;;;;;;;11.55;7.15;;;;;;;7.57;80.38;95332.05;1735850;81;21089;-70
2022/11/04 08:44:51;;;;;;;11.80;7.83;;;;;;;7.66;79.44;95338.52;1747655;81;21089;-74
2022/11/04 08:47:18;;;;;;;10.53;7.03;;;;;;;7.86;80.49;95329.52;1736261;81;21050;-76
2022/11/04 08:49:44;;;;;;;14.03;7.53;;;;;;;8.03;80.78;95333.66;1734626;81;21045;-74
2022/11/04 08:52:11;;;;;;;10.60;7.10;;;;;;;8.15;79.60;95329.16;1749115;81;21040;-76
2022/11/04 08:54:38;;;;;;;9.60;6.08;;;;;;;8.18;79.00;95320.77;1752494;81;21018;-77
2022/11/04 08:57:05;;;;;;;12.10;7.12;;;;;;;8.30;79.89;95322.82;1733597;81;21019;-80
2022/11/04 08:59:32;;;;;;;9.60;6.37;;;;;;;8.49;79.66;95323.44;1737570;81;21058;-76
2022/11/04 09:01:58;;;;;;;8.73;5.33;;;;;;;8.68;78.35;95333.25;1741497;81;21130;-71
2022/11/04 09:04:25;;;;;;;9.58;6.12;;;;;;;8.87;77.85;95321.55;1736940;82;21011;-74
2022/11/04 09:06:55;;;;;;;11.05;6.40;;;;;;;8.97;75.33;95320.50;1745087;81;21017;-74
2022/11/04 09:09:21;;;;;;;11.30;6.45;;;;;;;9.07;74.10;95314.61;1732590;81;21659;-76
2022/11/04 09:11:48;;;;;;;9.60;6.22;;;;;;;9.23;75.31;95309.52;1733995;81;21028;-77
2022/11/04 09:14:16;;;;;;;8.58;5.58;;;;;;;9.42;73.93;95302.59;1738940;81;21856;-77
2022/11/04 09:16:43;;;;;;;10.20;5.70;;;;;;;9.51;72.68;95295.38;1741768;81;20994;-72
2022/11/04 09:19:10;;;;;;;9.90;6.60;;;;;;;9.56;72.90;95292.66;1740613;81;20982;-72
2022/11/04 09:21:36;;;;;;;10.38;6.40;;;;;;;9.63;72.16;95287.70;1741889;81;21504;-72
2022/11/04 09:24:06;;;;;;;10.93;8.20;;;;;;;9.71;72.99;95294.13;1739900;81;21041;-72
2022/11/04 09:26:34;;;;;;;10.65;5.37;;;;;;;9.75;72.46;95289.20;1740463;81;21070;-72
2022/11/04 09:29:01;;;;;;;12.80;6.97;;;;;;;9.83;70.85;95287.75;1736050;82;21026;-74
2022/11/04 09:31:30;;;;;;;8.50;5.70;;;;;;;9.84;71.12;95271.89;1735953;81;22523;-73
2022/11/04 09:33:57;;;;;;;8.93;6.22;;;;;;;9.99;71.60;95267.21;1733044;81;21071;-74
2022/11/04 09:36:24;;;;;;;10.18;6.95;;;;;;;10.11;71.28;95260.36;1718827;80;21061;-77
2022/11/04 09:38:51;;;;;;;10.20;7.17;;;;;;;10.16;69.69;95259.34;1723218;83;21034;-77
2022/11/04 09:41:35;;;;;;;10.93;6.17;;;;;;;10.24;70.84;95251.72;1726997;80;21380;-72
2022/11/04 09:44:16;;;;;;;12.13;6.20;;;;;;;10.36;71.53;95243.11;1785038;80;21021;-73
2022/11/04 09:46:44;;;;;;;8.68;5.83;;;;;;;10.52;69.92;95244.92;1724826;80;21515;-78
2022/11/04 09:49:12;;;;;;;10.43;5.90;;;;;;;10.61;69.04;95242.53;1724646;80;21136;-79
2022/11/04 09:51:41;;;;;;;11.10;6.47;;;;;;;10.73;69.17;95232.10;1714563;81;21146;-75
2022/11/04 09:54:21;;;;;;;10.78;5.62;;;;;;;10.96;69.67;95228.88;1758525;81;21022;-75
2022/11/04 09:56:51;;;;;;;8.08;5.45;;;;;;;11.21;69.76;95233.95;1756790;80;21548;-77
2022/11/04 09:59:26;;;;;;;10.93;6.58;;;;;;;11.62;66.25;95217.86;1756808;80;21022;-74
2022/11/04 10:02:28;;;;;;;11.73;6.42;;;;;;;12.00;66.21;95218.54;1759996;81;21062;-72
2022/11/04 10:05:23;;;;;;;9.43;5.95;;;;;;;12.52;65.90;95212.92;1760549;81;21512;-73
2022/11/04 10:08:15;;;;;;;8.18;6.22;;;;;;;12.94;63.99;95213.76;1756527;81;21086;-72
2022/11/04 10:11:21;;;;;;;9.75;6.30;;;;;;;13.30;63.99;95209.45;1778843;78;21030;-71
2022/11/04 10:14:20;;;;;;;8.40;5.40;;;;;;;13.45;63.03;95208.91;1787995;78;21019;-71
2022/11/04 10:17:19;;;;;;;6.72;5.28;;;;;;;13.57;63.16;95203.16;1761711;79;21010;-72
2022/11/04 10:20:04;;;;;;;8.58;5.80;;;;;;;13.67;60.90;95196.21;1769813;79;21184;-72
2022/11/04 10:22:39;;;;;;;9.83;6.28;;;;;;;13.49;59.88;95185.83;1744862;81;21069;-72
2022/11/04 10:25:13;;;;;;;10.90;5.45;;;;;;;13.35;60.74;95183.19;1773489;79;21062;-72
2022/11/04 10:27:44;;;;;;;10.60;6.28;;;;;;;13.20;60.87;95186.36;1811885;79;21149;-72
2022/11/04 10:30:18;;;;;;;8.98;5.80;;;;;;;13.32;62.48;95175.83;1811032;78;21108;-71
2022/11/04 10:33:02;;;;;;;8.88;6.25;;;;;;;13.42;62.29;95169.27;1811500;78;21056;-71
2022/11/04 10:35:43;;;;;;;7.92;6.10;;;;;;;13.35;60.93;95169.94;1804449;78;21142;-72
2022/11/04 10:38:51;;;;;;;8.45;6.22;;;;;;;13.24;61.96;95170.77;1811500;78;21015;-72
2022/11/04 10:41:34;;;;;;;9.80;6.17;;;;;;;13.18;62.46;95171.00;1800707;78;21119;-71
2022/11/04 10:44:18;;;;;;;9.43;6.08;;;;;;;13.10;62.50;95162.00;1810704;79;21011;-71
2022/11/04 10:47:36;;;;;;;11.83;5.95;;;;;;;12.95;62.14;95169.13;1806515;78;20995;-71
2022/11/04 10:50:16;;;;;;;9.48;6.72;;;;;;;12.90;62.88;95160.05;1814619;78;21041;-71
2022/11/04 10:52:43;;;;;;;11.00;6.90;;;;;;;12.81;62.92;95150.23;1807137;78;21025;-72
2022/11/04 10:55:50;;;;;;;9.63;6.20;;;;;;;12.77;63.38;95149.45;1810551;79;21049;-71
2022/11/04 10:58:24;;;;;;;10.30;6.25;;;;;;;12.80;63.66;95148.48;1766839;79;21519;-71
2022/11/04 11:00:52;;;;;;;7.80;6.10;;;;;;;12.87;63.77;95146.89;1787830;79;21053;-71
2022/11/04 11:03:29;;;;;;;12.03;6.33;;;;;;;12.98;63.78;95142.10;1769766;80;21013;-72
2022/11/04 11:06:24;;;;;;;9.53;6.55;;;;;;;13.14;63.91;95125.66;1770210;81;21437;-71
2022/11/04 11:08:59;;;;;;;11.25;5.97;;;;;;;13.24;62.22;95124.88;1810760;78;21014;-71
2022/11/04 11:11:46;;;;;;;9.43;6.37;;;;;;;13.25;62.47;95122.15;1808709;78;21051;-71
2022/11/04 11:14:33;;;;;;;9.53;6.17;;;;;;;13.24;62.15;95115.13;1806386;78;21518;-71
2022/11/04 11:17:22;;;;;;;9.68;6.25;;;;;;;13.35;62.45;95119.59;1768765;80;21034;-71
2022/11/04 11:20:06;;;;;;;7.70;6.10;;;;;;;13.51;61.70;95112.43;1804118;78;21020;-71
2022/11/04 11:22:40;;;;;;;8.20;5.87;;;;;;;13.71;62.02;95111.20;1807170;78;21038;-71
2022/11/04 11:25:29;;;;;;;10.43;6.17;;;;;;;13.64;60.65;95115.86;1804212;78;21014;-71
2022/11/04 11:28:03;;;;;;;7.30;5.70;;;;;;;13.55;60.44;95112.70;1804735;78;21027;-71
2022/11/04 11:30:46;;;;;;;9.08;6.03;;;;;;;13.44;60.87;95107.81;1812369;78;21030;-71
2022/11/04 11:33:32;;;;;;;8.85;5.92;;;;;;;13.32;61.02;95108.27;1814392;79;21054;-71
2022/11/04 11:36:16;;;;;;;9.05;6.08;;;;;;;13.21;61.32;95104.19;1804915;79;21041;-72
2022/11/04 11:39:13;;;;;;;6.95;5.58;;;;;;;13.18;61.65;95101.66;1809108;78;21082;-72
2022/11/04 11:42:02;;;;;;;10.95;6.40;;;;;;;13.32;61.73;95101.17;1803007;78;21053;-71
2022/11/04 11:44:55;;;;;;;9.98;5.85;;;;;;;13.38;61.68;95098.31;1814143;78;21006;-72
2022/11/04 11:47:30;;;;;;;7.42;5.35;;;;;;;13.29;61.33;95090.69;1806605;78;21000;-72
2022/11/04 11:50:14;;;;;;;9.60;6.08;;;;;;;13.16;61.21;95085.42;1803462;79;21080;-71
2022/11/04 11:52:43;;;;;;;7.40;5.72;;;;;;;13.12;61.87;95084.65;1814318;78;21014;-71
2022/11/04 11:55:33;;;;;;;7.83;5.65;;;;;;;13.05;61.77;95086.25;1778533;78;21089;-71
2022/11/04 11:58:11;;;;;;;6.90;5.90;;;;;;;12.94;61.76;95090.16;1806069;78;21526;-71
2022/11/04 12:00:44;;;;;;;7.50;5.62;;;;;;;12.89;61.95;95084.63;1813253;78;21079;-71
2022/11/04 12:03:36;;;;;;;9.05;6.33;;;;;;;12.75;61.44;95091.72;1813516;79;21110;-71
2022/11/04 12:06:27;;;;;;;8.95;6.17;;;;;;;12.65;62.22;95088.56;1810123;78;21611;-71
2022/11/04 12:09:31;;;;;;;9.93;5.85;;;;;;;12.56;62.62;95085.75;1770757;80;21037;-72
2022/11/04 12:12:19;;;;;;;;;;;;;;;12.55;62.92;95085.83;1769030;80;21034;-71
2022/11/04 12:15:17;;;;;;;8.95;6.67;;;;;;;12.55;63.24;95073.91;1760753;80;20389;-71
2022/11/04 12:18:16;;;;;;;8.45;6.33;;;;;;;12.60;63.67;95080.34;1764914;80;21125;-71
2022/11/04 12:21:12;;;;;;;11.28;7.45;;;;;;;12.71;63.84;95074.23;1771037;80;21064;-71
2022/11/04 12:23:53;;;;;;;10.65;6.67;;;;;;;12.75;63.11;95071.43;1814286;78;21009;-71
2022/11/04 12:26:37;;;;;;;9.83;6.05;;;;;;;12.81;63.57;95064.19;1801341;78;21016;-71
2022/11/04 12:29:29;;;;;;;8.93;6.00;;;;;;;12.77;63.06;95065.62;1812430;78;21029;-70
2022/11/04 12:32:31;;;;;;;7.00;5.72;;;;;;;12.67;62.82;95068.63;1813101;78;21007;-71
2022/11/04 12:35:18;;;;;;;11.45;6.37;;;;;;;12.47;62.73;95072.86;1804398;78;21497;-71
2022/11/04 12:38:30;;;;;;;8.93;6.40;;;;;;;12.30;63.46;95074.74;1802662;78;21003;-71